createdAt,value
2018-03-25T00:01:49.005Z,97220.20
2018-03-25T00:04:17.866Z,97226.45
2018-03-25T00:06:45.383Z,97227.31
2018-03-25T00:09:12.996Z,97225.52
2018-03-25T00:11:41.436Z,97225.80
2018-03-25T00:14:09.008Z,97227.27
2018-03-25T00:16:36.528Z,97233.89
2018-03-25T00:19:04.129Z,97228.42
2018-03-25T00:21:31.648Z,97230.35
2018-03-25T00:23:59.256Z,97227.48
2018-03-25T00:26:26.810Z,97225.56
2018-03-25T00:28:54.304Z,97219.45
2018-03-25T00:31:21.823Z,97219.37
2018-03-25T00:33:49.366Z,97227.73
2018-03-25T00:36:16.859Z,97224.83
2018-03-25T00:38:44.385Z,97223.69
2018-03-25T00:41:11.880Z,97224.60
2018-03-25T00:43:39.392Z,97224.42
2018-03-25T00:46:06.979Z,97220.77
2018-03-25T00:48:34.503Z,97222.09
2018-03-25T00:51:01.987Z,97225.57
2018-03-25T00:53:29.629Z,97225.08
2018-03-25T00:55:57.152Z,97229.03
2018-03-25T00:58:24.673Z,97227.00
2018-03-25T01:00:52.168Z,97234.44
2018-03-25T01:03:19.780Z,97222.09
2018-03-25T01:05:47.279Z,97220.94
2018-03-25T01:08:14.828Z,97222.00
2018-03-25T01:10:42.336Z,97232.27
2018-03-25T01:13:09.946Z,97226.47
2018-03-25T01:15:49.381Z,97223.20
2018-03-25T01:18:16.931Z,97224.96
2018-03-25T01:20:44.433Z,97230.97
2018-03-25T01:23:11.939Z,97227.17
2018-03-25T01:25:39.428Z,97236.63
2018-03-25T01:28:06.943Z,97233.79
2018-03-25T01:30:34.441Z,97239.33
2018-03-25T01:33:01.993Z,97239.52
2018-03-25T01:35:29.499Z,97240.99
2018-03-25T01:37:57.012Z,97241.25
2018-03-25T01:40:24.534Z,97232.94
2018-03-25T01:42:52.120Z,97238.12
2018-03-25T01:45:19.654Z,97229.27
2018-03-25T01:47:47.156Z,97226.41
2018-03-25T01:50:14.714Z,97231.27
2018-03-25T01:52:42.263Z,97234.74
2018-03-25T01:55:09.822Z,97233.03
2018-03-25T01:57:37.384Z,97238.88
2018-03-25T02:00:04.947Z,97236.56
2018-03-25T02:02:32.457Z,97243.69
2018-03-25T02:04:59.980Z,97237.66
2018-03-25T02:07:27.478Z,97240.37
2018-03-25T02:09:59.016Z,97238.64
2018-03-25T02:12:26.803Z,97236.10
2018-03-25T02:14:54.324Z,97240.56
2018-03-25T02:17:21.852Z,97233.45
2018-03-25T02:19:49.407Z,97239.79
2018-03-25T02:22:16.980Z,97233.28
2018-03-25T02:24:44.527Z,97234.12
2018-03-25T02:27:12.019Z,97236.88
2018-03-25T02:29:39.544Z,97231.24
2018-03-25T02:32:07.041Z,97228.03
2018-03-25T02:34:34.558Z,97237.48
2018-03-25T02:37:02.045Z,97233.92
2018-03-25T02:39:29.595Z,97233.94
2018-03-25T02:41:57.092Z,97240.51
2018-03-25T02:44:24.604Z,97242.00
2018-03-25T02:46:52.116Z,97240.57
2018-03-25T02:49:19.738Z,97247.47
2018-03-25T02:51:47.261Z,97242.73
2018-03-25T02:54:14.761Z,97247.38
2018-03-25T02:56:42.294Z,97251.48
2018-03-25T02:59:09.862Z,97250.45
2018-03-25T03:01:37.425Z,97255.27
2018-03-25T03:04:04.976Z,97260.74
2018-03-25T03:06:32.496Z,97258.27
2018-03-25T03:09:00.091Z,97263.11
2018-03-25T03:11:27.607Z,97262.81
2018-03-25T03:13:55.235Z,97265.92
2018-03-25T03:16:22.752Z,97263.59
2018-03-25T03:18:50.256Z,97267.65
2018-03-25T03:21:17.787Z,97261.91
2018-03-25T03:23:45.358Z,97266.63
2018-03-25T03:26:12.886Z,97263.83
2018-03-25T03:28:40.380Z,97267.33
2018-03-25T03:31:07.934Z,97272.67
2018-03-25T03:33:35.428Z,97269.22
2018-03-25T03:36:02.942Z,97273.41
2018-03-25T03:38:30.508Z,97271.14
2018-03-25T03:40:58.072Z,97265.94
2018-03-25T03:43:25.565Z,97260.25
2018-03-25T03:45:53.088Z,97268.51
2018-03-25T03:48:20.657Z,97272.39
2018-03-25T03:50:48.169Z,97272.89
2018-03-25T03:53:15.800Z,97285.98
2018-03-25T03:55:43.312Z,97278.09
2018-03-25T03:58:10.885Z,97287.70
2018-03-25T04:00:38.396Z,97284.88
2018-03-25T04:03:05.912Z,97295.10
2018-03-25T04:05:33.464Z,97291.98
2018-03-25T04:08:01.023Z,97289.08
2018-03-25T04:10:28.584Z,97292.07
2018-03-25T04:12:56.116Z,97290.70
2018-03-25T04:15:23.635Z,97297.48
2018-03-25T04:17:51.149Z,97298.03
2018-03-25T04:20:18.722Z,97300.30
2018-03-25T04:22:46.269Z,97297.95
2018-03-25T04:25:13.771Z,97301.56
2018-03-25T04:27:41.283Z,97301.84
2018-03-25T04:30:08.772Z,97298.99
2018-03-25T04:32:36.283Z,97298.83
2018-03-25T04:35:03.775Z,97306.30
2018-03-25T04:37:31.334Z,97310.52
2018-03-25T04:39:58.836Z,97306.02
2018-03-25T04:42:26.366Z,97306.52
2018-03-25T04:44:53.852Z,97308.00
2018-03-25T04:47:21.391Z,97305.79
2018-03-25T04:49:48.892Z,97313.42
2018-03-25T04:52:16.484Z,97312.22
2018-03-25T04:54:43.972Z,97310.65
2018-03-25T04:57:11.497Z,97312.55
2018-03-25T04:59:39.060Z,97322.81
2018-03-25T05:02:06.624Z,97321.84
2018-03-25T05:04:34.131Z,97318.55
2018-03-25T05:07:01.621Z,97318.47
2018-03-25T05:09:29.141Z,97332.53
2018-03-25T05:11:56.639Z,97319.72
2018-03-25T05:14:24.156Z,97329.06
2018-03-25T05:16:51.655Z,97331.78
2018-03-25T05:19:19.189Z,97331.14
2018-03-25T05:21:46.682Z,97320.66
2018-03-25T05:24:14.204Z,97324.66
2018-03-25T05:26:41.708Z,97328.22
2018-03-25T05:29:09.228Z,97325.03
2018-03-25T05:31:36.719Z,97332.11
2018-03-25T05:34:04.234Z,97335.43
2018-03-25T05:36:31.733Z,97332.46
2018-03-25T05:38:59.409Z,97343.27
2018-03-25T05:41:26.907Z,97350.86
2018-03-25T05:43:54.424Z,97358.70
2018-03-25T05:46:21.943Z,97356.91
2018-03-25T05:48:49.452Z,97361.75
2018-03-25T05:51:16.939Z,97363.63
2018-03-25T05:53:45.412Z,97366.11
2018-03-25T05:56:12.908Z,97374.38
2018-03-25T05:58:40.432Z,97375.63
2018-03-25T06:01:07.921Z,97381.72
2018-03-25T06:03:35.441Z,97375.41
2018-03-25T06:06:02.968Z,97383.24
2018-03-25T06:08:30.533Z,97387.33
2018-03-25T06:10:58.041Z,97396.63
2018-03-25T06:13:25.537Z,97392.13
2018-03-25T06:15:53.064Z,97396.83
2018-03-25T06:18:20.561Z,97402.98
2018-03-25T06:20:48.127Z,97409.99
2018-03-25T06:23:15.639Z,97415.86
2018-03-25T06:25:43.158Z,97416.89
2018-03-25T06:28:10.652Z,97411.53
2018-03-25T06:30:38.163Z,97407.31
2018-03-25T06:33:05.727Z,97420.27
2018-03-25T06:35:33.256Z,97426.05
2018-03-25T06:38:00.850Z,97422.68
2018-03-25T06:40:28.616Z,97421.95
2018-03-25T06:42:56.168Z,97424.75
2018-03-25T06:45:23.734Z,97428.30
2018-03-25T06:47:51.229Z,97429.03
2018-03-25T06:50:18.793Z,97432.73
2018-03-25T06:52:46.339Z,97440.20
2018-03-25T06:55:13.844Z,97445.77
2018-03-25T06:57:41.428Z,97442.98
2018-03-25T07:00:08.915Z,97445.66
2018-03-25T07:02:36.459Z,97441.12
2018-03-25T07:05:03.956Z,97446.59
2018-03-25T07:07:31.628Z,97443.81
2018-03-25T07:09:59.128Z,97446.99
2018-03-25T07:12:26.915Z,97452.11
2018-03-25T07:14:54.420Z,97454.22
2018-03-25T07:17:22.004Z,97457.64
2018-03-25T07:19:49.536Z,97461.44
2018-03-25T07:22:17.103Z,97465.78
2018-03-25T07:24:44.596Z,97474.62
2018-03-25T07:27:12.135Z,97473.42
2018-03-25T07:29:39.719Z,97472.81
2018-03-25T07:32:07.267Z,97475.70
2018-03-25T07:34:34.760Z,97488.63
2018-03-25T07:37:02.299Z,97481.69
2018-03-25T07:39:29.844Z,97487.59
2018-03-25T07:41:57.412Z,97487.70
2018-03-25T07:44:24.985Z,97490.30
2018-03-25T07:46:52.524Z,97491.56
2018-03-25T07:49:21.442Z,97496.28
2018-03-25T07:51:49.072Z,97496.98
2018-03-25T07:54:16.568Z,97488.28
2018-03-25T07:56:44.104Z,97490.00
2018-03-25T07:59:11.624Z,97490.83
2018-03-25T08:01:39.137Z,97504.56
2018-03-25T08:04:06.652Z,97494.47
2018-03-25T08:06:34.245Z,97500.49
2018-03-25T08:09:01.731Z,97498.05
2018-03-25T08:11:29.257Z,97503.89
2018-03-25T08:13:56.772Z,97501.84
2018-03-25T08:16:24.332Z,97509.44
2018-03-25T08:18:51.856Z,97508.50
2018-03-25T08:21:20.317Z,97506.44
2018-03-25T08:23:47.813Z,97508.64
2018-03-25T08:26:15.335Z,97502.01
2018-03-25T08:28:42.879Z,97504.55
2018-03-25T08:31:10.381Z,97512.02
2018-03-25T08:33:37.917Z,97508.97
2018-03-25T08:36:05.439Z,97507.03
2018-03-25T08:38:32.960Z,97508.72
2018-03-25T08:41:00.456Z,97509.97
2018-03-25T08:43:28.048Z,97509.33
2018-03-25T08:45:55.568Z,97512.90
2018-03-25T08:48:23.099Z,97512.90
2018-03-25T08:50:50.720Z,97514.70
2018-03-25T08:53:18.263Z,97519.95
2018-03-25T08:55:45.756Z,97517.80
2018-03-25T08:58:13.312Z,97517.38
2018-03-25T09:00:40.832Z,97513.02
2018-03-25T09:03:08.364Z,97522.92
2018-03-25T09:05:36.084Z,97520.70
2018-03-25T09:08:03.755Z,97521.00
2018-03-25T09:10:31.263Z,97522.53
2018-03-25T09:12:58.873Z,97518.69
2018-03-25T09:15:26.393Z,97525.05
2018-03-25T09:17:53.917Z,97524.09
2018-03-25T09:20:21.416Z,97523.28
2018-03-25T09:22:48.985Z,97523.31
2018-03-25T09:25:16.572Z,97527.21
2018-03-25T09:27:44.091Z,97519.27
2018-03-25T09:30:11.594Z,97520.18
2018-03-25T09:32:39.140Z,97523.21
2018-03-25T09:35:06.640Z,97524.73
2018-03-25T09:37:34.164Z,97529.11
2018-03-25T09:40:01.682Z,97523.03
2018-03-25T09:42:29.216Z,97525.55
2018-03-25T09:47:31.844Z,97522.90
2018-03-25T09:49:59.429Z,97525.17
2018-03-25T09:52:26.976Z,97528.34
2018-03-25T09:54:54.505Z,97531.41
2018-03-25T09:57:22.119Z,97536.66
2018-03-25T09:59:49.725Z,97535.00
2018-03-25T10:05:25.035Z,97534.78
2018-03-25T10:07:52.527Z,97535.70
2018-03-25T10:10:20.063Z,97537.34
2018-03-25T10:12:47.572Z,97539.63
2018-03-25T10:15:15.121Z,97542.17
2018-03-25T10:17:42.622Z,97536.98
2018-03-25T10:20:10.148Z,97539.10
2018-03-25T10:22:37.685Z,97532.88
2018-03-25T10:25:05.224Z,97541.25
2018-03-25T10:27:32.756Z,97544.80
2018-03-25T10:30:00.333Z,97536.37
2018-03-25T10:32:27.855Z,97540.83
2018-03-25T10:34:55.617Z,97537.71
2018-03-25T10:37:23.132Z,97535.38
2018-03-25T10:39:50.732Z,97528.33
2018-03-25T10:42:18.260Z,97532.78
2018-03-25T10:44:45.788Z,97530.84
2018-03-25T10:47:13.303Z,97524.87
2018-03-25T10:49:40.868Z,97527.11
2018-03-25T10:52:08.371Z,97525.35
2018-03-25T10:54:36.031Z,97531.19
2018-03-25T10:57:03.536Z,97522.77
2018-03-25T10:59:31.104Z,97527.34
2018-03-25T11:01:58.625Z,97532.28
2018-03-25T11:04:26.162Z,97528.72
2018-03-25T11:06:53.660Z,97526.22
2018-03-25T11:09:21.187Z,97523.84
2018-03-25T11:11:48.737Z,97522.63
2018-03-25T11:14:16.309Z,97521.39
2018-03-25T11:16:43.939Z,97522.52
2018-03-25T11:19:12.420Z,97521.98
2018-03-25T11:21:39.988Z,97522.09
2018-03-25T11:24:08.504Z,97523.00
2018-03-25T11:26:36.024Z,97515.86
2018-03-25T11:29:03.552Z,97520.66
2018-03-25T11:31:31.180Z,97524.44
2018-03-25T11:33:58.727Z,97518.09
2018-03-25T11:36:26.280Z,97523.50
2018-03-25T11:38:53.852Z,97523.84
2018-03-25T11:41:21.375Z,97526.08
2018-03-25T11:43:48.897Z,97523.27
2018-03-25T11:46:16.432Z,97523.14
2018-03-25T11:48:43.949Z,97521.77
2018-03-25T11:51:11.492Z,97522.41
2018-03-25T11:53:39.008Z,97524.95
2018-03-25T11:56:06.576Z,97528.26
2018-03-25T11:58:34.079Z,97516.09
2018-03-25T12:01:01.624Z,97504.78
2018-03-25T12:03:29.143Z,97511.44
2018-03-25T12:05:56.677Z,97512.73
2018-03-25T12:08:24.175Z,97517.30
2018-03-25T12:10:51.718Z,97508.53
2018-03-25T12:13:19.243Z,97506.84
2018-03-25T12:15:46.825Z,97509.52
2018-03-25T12:18:14.325Z,97498.91
2018-03-25T12:20:41.922Z,97507.98
2018-03-25T12:23:09.442Z,97509.78
2018-03-25T12:25:37.000Z,97501.77
2018-03-25T12:28:04.543Z,97504.08
2018-03-25T12:30:32.064Z,97502.61
2018-03-25T12:32:59.680Z,97495.55
2018-03-25T12:35:27.188Z,97499.14
2018-03-25T12:37:54.737Z,97494.80
2018-03-25T12:40:22.240Z,97496.11
2018-03-25T12:42:49.771Z,97495.62
2018-03-25T12:45:17.267Z,97492.05
2018-03-25T12:47:44.795Z,97499.98
2018-03-25T12:50:12.292Z,97495.59
2018-03-25T12:52:39.808Z,97489.53
2018-03-25T12:55:07.466Z,97489.07
2018-03-25T12:57:34.980Z,97482.76
2018-03-25T13:00:02.484Z,97483.94
2018-03-25T13:02:30.020Z,97477.94
2018-03-25T13:04:57.534Z,97477.07
2018-03-25T13:07:25.105Z,97473.57
2018-03-25T13:09:52.592Z,97478.19
2018-03-25T13:12:20.128Z,97473.35
2018-03-25T13:14:47.616Z,97477.83
2018-03-25T13:17:15.151Z,97471.43
2018-03-25T13:19:42.652Z,97468.94
2018-03-25T13:22:10.165Z,97466.23
2018-03-25T13:24:37.674Z,97461.81
2018-03-25T13:27:05.173Z,97460.82
2018-03-25T13:29:32.734Z,97456.63
2018-03-25T13:32:00.223Z,97455.78
2018-03-25T13:34:27.849Z,97459.49
2018-03-25T13:36:55.524Z,97460.22
2018-03-25T13:39:23.081Z,97469.94
2018-03-25T13:41:50.579Z,97461.63
2018-03-25T13:44:18.096Z,97463.17
2018-03-25T13:46:45.588Z,97456.28
2018-03-25T13:49:13.144Z,97456.41
2018-03-25T13:51:40.675Z,97455.55
2018-03-25T13:54:08.220Z,97456.02
2018-03-25T13:56:35.784Z,97454.45
2018-03-25T13:59:03.305Z,97459.36
2018-03-25T14:01:30.858Z,97463.17
2018-03-25T14:03:58.366Z,97459.30
2018-03-25T14:06:25.879Z,97464.79
2018-03-25T14:08:53.472Z,97450.39
2018-03-25T14:11:20.965Z,97451.82
2018-03-25T14:13:48.504Z,97452.05
2018-03-25T14:16:16.019Z,97460.89
2018-03-25T14:18:43.675Z,97461.54
2018-03-25T14:21:11.160Z,97459.20
2018-03-25T14:23:38.675Z,97457.06
2018-03-25T14:26:06.208Z,97458.38
2018-03-25T14:28:33.765Z,97455.63
2018-03-25T14:31:01.261Z,97455.42
2018-03-25T14:33:28.799Z,97460.20
2018-03-25T14:35:56.382Z,97453.27
2018-03-25T14:38:23.974Z,97464.17
2018-03-25T14:40:51.611Z,97459.33
2018-03-25T14:43:19.227Z,97446.95
2018-03-25T14:45:46.743Z,97452.47
2018-03-25T14:48:14.335Z,97452.37
2018-03-25T14:50:41.888Z,97459.05
2018-03-25T14:53:09.467Z,97456.66
2018-03-25T14:55:37.009Z,97453.13
2018-03-25T14:58:04.533Z,97456.05
2018-03-25T15:00:32.272Z,97452.64
2018-03-25T15:02:59.809Z,97448.05
2018-03-25T15:05:27.328Z,97450.74
2018-03-25T15:07:54.905Z,97446.91
2018-03-25T15:10:22.393Z,97446.98
2018-03-25T15:12:50.003Z,97445.86
2018-03-25T15:15:17.596Z,97450.91
2018-03-25T15:17:45.087Z,97447.19
2018-03-25T15:20:12.616Z,97450.50
2018-03-25T15:22:40.197Z,97445.52
2018-03-25T15:25:07.741Z,97447.90
2018-03-25T15:27:35.281Z,97445.64
2018-03-25T15:30:02.788Z,97448.34
2018-03-25T15:32:30.275Z,97457.75
2018-03-25T15:34:57.891Z,97461.35
2018-03-25T15:37:25.397Z,97457.36
2018-03-25T15:39:52.949Z,97457.11
2018-03-25T15:42:20.459Z,97460.19
2018-03-25T15:44:47.981Z,97463.02
2018-03-25T15:47:15.573Z,97464.66
2018-03-25T15:49:43.135Z,97467.99
2018-03-25T15:52:10.633Z,97465.05
2018-03-25T15:54:38.179Z,97468.34
2018-03-25T15:57:05.683Z,97467.28
2018-03-25T15:59:33.180Z,97463.53
2018-03-25T16:02:00.820Z,97471.69
2018-03-25T16:04:28.313Z,97471.23
2018-03-25T16:06:55.897Z,97469.42
2018-03-25T16:09:23.395Z,97473.39
2018-03-25T16:11:50.982Z,97476.94
2018-03-25T16:14:18.492Z,97478.57
2018-03-25T16:16:46.080Z,97482.80
2018-03-25T16:19:13.578Z,97478.80
2018-03-25T16:21:41.114Z,97483.38
2018-03-25T16:24:08.625Z,97484.46
2018-03-25T16:26:36.147Z,97485.33
2018-03-25T16:29:03.659Z,97484.86
2018-03-25T16:31:31.236Z,97493.89
2018-03-25T16:33:58.764Z,97489.86
2018-03-25T16:36:27.374Z,97495.53
2018-03-25T16:38:54.954Z,97496.23
2018-03-25T16:41:22.518Z,97499.48
2018-03-25T16:43:50.024Z,97500.56
2018-03-25T16:46:17.627Z,97508.86
2018-03-25T16:48:45.171Z,97510.36
2018-03-25T16:51:12.728Z,97505.02
2018-03-25T16:53:40.226Z,97505.99
2018-03-25T16:56:07.784Z,97514.98
2018-03-25T16:58:35.297Z,97508.13
2018-03-25T17:01:03.810Z,97514.57
2018-03-25T17:03:31.319Z,97511.85
2018-03-25T17:05:58.853Z,97519.73
2018-03-25T17:08:26.367Z,97520.10
2018-03-25T17:10:54.936Z,97524.22
2018-03-25T17:13:22.848Z,97534.34
2018-03-25T17:15:50.332Z,97529.52
2018-03-25T17:18:17.885Z,97536.44
2018-03-25T17:20:45.389Z,97542.42
2018-03-25T17:23:12.912Z,97546.29
2018-03-25T17:25:41.483Z,97545.07
2018-03-25T17:28:09.024Z,97554.16
2018-03-25T17:30:36.526Z,97564.99
2018-03-25T17:33:05.161Z,97564.82
2018-03-25T17:35:33.706Z,97572.14
2018-03-25T17:38:02.201Z,97576.84
2018-03-25T17:40:29.768Z,97574.92
2018-03-25T17:42:57.306Z,97577.27
2018-03-25T17:45:29.914Z,97576.36
2018-03-25T17:47:57.428Z,97581.99
2018-03-25T17:50:24.923Z,97588.61
2018-03-25T17:52:52.528Z,97592.25
2018-03-25T17:55:20.938Z,97593.34
2018-03-25T17:57:48.545Z,97602.55
2018-03-25T18:00:16.064Z,97601.03
2018-03-25T18:02:43.602Z,97604.89
2018-03-25T18:05:11.101Z,97607.86
2018-03-25T18:07:38.629Z,97608.80
2018-03-25T18:10:06.138Z,97603.35
2018-03-25T18:12:33.684Z,97615.98
2018-03-25T18:15:01.181Z,97621.92
2018-03-25T18:17:34.106Z,97617.50
2018-03-25T18:19:56.477Z,97620.23
2018-03-25T18:22:24.020Z,97623.66
2018-03-25T18:24:51.671Z,97628.59
2018-03-25T18:27:19.224Z,97629.58
2018-03-25T18:29:46.756Z,97636.20
2018-03-25T18:32:14.304Z,97637.91
2018-03-25T18:34:41.825Z,97646.30
2018-03-25T18:37:09.376Z,97647.03
2018-03-25T18:39:36.895Z,97651.50
2018-03-25T18:42:04.411Z,97651.84
2018-03-25T18:44:31.960Z,97658.20
2018-03-25T18:46:59.464Z,97664.19
2018-03-25T18:49:27.012Z,97669.03
2018-03-25T18:51:54.519Z,97676.38
2018-03-25T18:54:22.048Z,97680.42
2018-03-25T18:56:49.548Z,97685.09
2018-03-25T18:59:17.072Z,97689.75
2018-03-25T19:01:44.576Z,97688.81
2018-03-25T19:04:12.103Z,97692.11
2018-03-25T19:06:39.602Z,97694.94
2018-03-25T19:09:07.124Z,97699.89
2018-03-25T19:11:34.626Z,97701.33
2018-03-25T19:14:02.153Z,97710.14
2018-03-25T19:16:29.656Z,97715.01
2018-03-25T19:18:57.192Z,97717.34
2018-03-25T19:21:24.700Z,97718.19
2018-03-25T19:23:52.330Z,97722.28
2018-03-25T19:26:19.848Z,97719.97
2018-03-25T19:28:47.400Z,97720.91
2018-03-25T19:31:14.932Z,97722.61
2018-03-25T19:33:42.458Z,97728.09
2018-03-25T19:36:09.970Z,97727.16
2018-03-25T19:38:37.509Z,97727.46
2018-03-25T19:41:05.024Z,97729.75
2018-03-25T19:43:32.561Z,97736.19
2018-03-25T19:46:00.111Z,97746.19
2018-03-25T19:48:27.647Z,97745.40
2018-03-25T19:50:55.170Z,97752.20
2018-03-25T19:53:22.669Z,97754.88
2018-03-25T19:55:50.216Z,97750.12
2018-03-25T19:58:17.745Z,97752.87
2018-03-25T20:00:45.281Z,97756.71
2018-03-25T20:03:12.786Z,97763.34
2018-03-25T20:05:40.311Z,97765.16
2018-03-25T20:08:07.804Z,97769.25
2018-03-25T20:10:35.332Z,97775.50
2018-03-25T20:13:02.904Z,97779.00
2018-03-25T20:15:30.429Z,97783.98
2018-03-25T20:17:57.927Z,97779.55
2018-03-25T20:20:25.461Z,97785.09
2018-03-25T20:22:52.973Z,97785.19
2018-03-25T20:25:20.619Z,97797.14
2018-03-25T20:27:48.168Z,97796.85
2018-03-25T20:30:15.680Z,97794.10
2018-03-25T20:32:43.280Z,97798.25
2018-03-25T20:35:10.841Z,97799.66
2018-03-25T20:37:38.430Z,97797.75
2018-03-25T20:40:05.948Z,97804.46
2018-03-25T20:42:33.476Z,97805.27
2018-03-25T20:45:00.988Z,97811.61
2018-03-25T20:47:28.536Z,97810.66
2018-03-25T20:49:56.067Z,97809.86
2018-03-25T20:52:23.608Z,97807.30
2018-03-25T20:54:51.106Z,97813.39
2018-03-25T20:57:18.645Z,97805.16
2018-03-25T20:59:46.160Z,97810.75
2018-03-25T21:02:13.695Z,97817.05
2018-03-25T21:04:41.190Z,97820.25
2018-03-25T21:07:08.712Z,97826.17
2018-03-25T21:09:36.210Z,97828.66
2018-03-25T21:12:03.739Z,97828.02
2018-03-25T21:14:31.237Z,97833.11
2018-03-25T21:16:58.756Z,97836.08
2018-03-25T21:19:26.259Z,97835.84
2018-03-25T21:21:53.776Z,97829.25
2018-03-25T21:24:21.280Z,97833.81
2018-03-25T21:26:48.897Z,97843.91
2018-03-25T21:29:16.408Z,97843.68
2018-03-25T21:31:43.931Z,97844.67
2018-03-25T21:34:11.428Z,97848.74
2018-03-25T21:36:39.964Z,97851.53
2018-03-25T21:39:07.468Z,97850.50
2018-03-25T21:41:34.992Z,97841.45
2018-03-25T21:44:02.491Z,97842.44
2018-03-25T21:46:30.116Z,97840.38
2018-03-25T21:48:57.782Z,97844.81
2018-03-25T21:51:25.415Z,97840.17
2018-03-25T21:53:52.920Z,97851.05
2018-03-25T21:56:20.427Z,97851.17
2018-03-25T21:58:48.016Z,97852.11
2018-03-25T22:01:15.517Z,97849.43
2018-03-25T22:03:43.140Z,97853.28
2018-03-25T22:06:10.671Z,97861.95
2018-03-25T22:08:38.258Z,97859.20
2018-03-25T22:11:05.753Z,97869.38
2018-03-25T22:13:33.277Z,97868.42
2018-03-25T22:16:00.832Z,97871.73
2018-03-25T22:18:32.265Z,97877.66
2018-03-25T22:20:59.768Z,97878.52
2018-03-25T22:23:27.287Z,97883.41
2018-03-25T22:25:54.780Z,97883.22
2018-03-25T22:28:22.320Z,97877.84
2018-03-25T22:30:49.818Z,97883.71
2018-03-25T22:33:17.347Z,97887.98
2018-03-25T22:35:44.851Z,97889.45
2018-03-25T22:38:12.443Z,97890.95
2018-03-25T22:40:40.015Z,97891.55
2018-03-25T22:43:07.538Z,97890.57
2018-03-25T22:45:35.045Z,97890.36
2018-03-25T22:48:02.568Z,97889.19
2018-03-25T22:50:30.066Z,97888.50
2018-03-25T22:52:57.663Z,97887.63
2018-03-25T22:55:25.189Z,97891.93
2018-03-25T22:57:52.714Z,97892.34
2018-03-25T23:00:20.248Z,97896.42
2018-03-25T23:02:47.827Z,97899.78
2018-03-25T23:05:15.404Z,97902.16
2018-03-25T23:07:42.914Z,97895.36
2018-03-25T23:10:10.431Z,97904.83
2018-03-25T23:12:37.914Z,97902.95
2018-03-25T23:15:05.434Z,97905.08
2018-03-25T23:17:32.993Z,97909.45
2018-03-25T23:20:00.543Z,97909.91
2018-03-25T23:22:28.040Z,97915.63
2018-03-25T23:24:55.577Z,97916.57
2018-03-25T23:27:23.133Z,97915.47
2018-03-25T23:29:50.672Z,97916.28
2018-03-25T23:32:18.160Z,97914.44
2018-03-25T23:34:45.806Z,97916.80
2018-03-25T23:37:13.299Z,97917.67
2018-03-25T23:39:40.838Z,97916.28
2018-03-25T23:42:08.341Z,97916.60
2018-03-25T23:44:35.939Z,97922.52
2018-03-25T23:47:03.503Z,97927.82
2018-03-25T23:49:31.069Z,97919.28
2018-03-25T23:51:58.604Z,97928.14
2018-03-25T23:54:26.183Z,97924.71
2018-03-25T23:56:53.700Z,97928.65
2018-03-25T23:59:21.207Z,97931.20
